createdAt,value
2023-01-03T00:01:50.094Z,7.30
2023-01-03T00:04:20.196Z,11.33
2023-01-03T00:06:50.912Z,9.83
2023-01-03T00:09:21.703Z,9.70
2023-01-03T00:12:09.969Z,13.30
2023-01-03T00:14:42.310Z,8.43
2023-01-03T00:17:12.208Z,7.90
2023-01-03T00:19:44.942Z,10.53
2023-01-03T00:22:15.758Z,9.77
2023-01-03T00:24:44.818Z,10.07
2023-01-03T00:27:14.015Z,8.17
2023-01-03T00:29:42.857Z,8.13
2023-01-03T00:32:11.717Z,9.90
2023-01-03T00:34:41.529Z,10.47
2023-01-03T00:37:09.854Z,7.43
2023-01-03T00:39:38.165Z,7.87
2023-01-03T00:42:07.214Z,6.00
2023-01-03T00:44:35.478Z,10.53
2023-01-03T00:47:04.611Z,10.33
2023-01-03T00:49:32.873Z,8.40
2023-01-03T00:52:02.605Z,7.13
2023-01-03T00:54:31.018Z,7.60
2023-01-03T00:56:59.264Z,4.50
2023-01-03T00:59:27.614Z,11.97
2023-01-03T01:01:58.603Z,8.30
2023-01-03T01:04:30.142Z,9.90
2023-01-03T01:07:04.427Z,9.50
2023-01-03T01:09:37.260Z,9.23
2023-01-03T01:12:07.989Z,11.77
2023-01-03T01:14:36.324Z,9.50
2023-01-03T01:17:07.088Z,7.30
2023-01-03T01:19:38.434Z,8.53
2023-01-03T01:22:08.996Z,10.40
2023-01-03T01:24:37.505Z,11.40
2023-01-03T01:27:06.637Z,6.70
2023-01-03T01:29:35.369Z,7.53
2023-01-03T01:32:05.350Z,7.53
2023-01-03T01:34:34.551Z,7.67
2023-01-03T01:37:02.903Z,6.47
2023-01-03T01:39:32.511Z,10.27
2023-01-03T01:42:23.191Z,10.67
2023-01-03T01:44:57.534Z,7.80
2023-01-03T01:47:39.671Z,7.77
2023-01-03T01:50:25.769Z,8.20
2023-01-03T01:53:00.606Z,5.20
2023-01-03T01:55:37.982Z,7.50
2023-01-03T01:58:08.129Z,12.97
2023-01-03T02:00:38.412Z,8.33
2023-01-03T02:03:06.873Z,15.70
2023-01-03T02:05:40.455Z,8.20
2023-01-03T02:08:08.861Z,11.93
2023-01-03T02:11:11.031Z,8.57
2023-01-03T02:13:52.098Z,6.57
2023-01-03T02:16:48.181Z,10.27
2023-01-03T02:20:19.393Z,11.97
2023-01-03T02:23:22.363Z,9.70
2023-01-03T02:26:37.068Z,18.00
2023-01-03T02:29:47.545Z,7.57
2023-01-03T02:32:25.008Z,10.03
2023-01-03T02:35:05.527Z,12.50
2023-01-03T02:37:42.424Z,8.80
2023-01-03T02:40:21.417Z,8.67
2023-01-03T02:43:02.023Z,17.13
2023-01-03T02:45:53.195Z,13.97
2023-01-03T02:48:42.163Z,9.73
2023-01-03T02:51:18.908Z,11.57
2023-01-03T02:53:51.757Z,10.43
2023-01-03T02:56:27.192Z,15.70
2023-01-03T02:59:01.172Z,10.13
2023-01-03T03:01:31.919Z,11.87
2023-01-03T03:04:06.805Z,11.37
2023-01-03T03:06:46.739Z,10.27
2023-01-03T03:09:15.128Z,11.57
2023-01-03T03:12:03.115Z,8.63
2023-01-03T03:14:39.894Z,6.77
2023-01-03T03:17:14.517Z,9.63
2023-01-03T03:20:06.227Z,9.83
2023-01-03T03:23:00.954Z,9.53
2023-01-03T03:25:36.051Z,9.03
2023-01-03T03:28:25.848Z,10.23
2023-01-03T03:31:00.371Z,7.27
2023-01-03T03:33:34.317Z,9.80
2023-01-03T03:36:14.218Z,11.67
2023-01-03T03:38:46.171Z,9.37
2023-01-03T03:41:43.149Z,9.57
2023-01-03T03:44:51.743Z,12.03
2023-01-03T03:47:30.671Z,9.13
2023-01-03T03:50:08.109Z,11.93
2023-01-03T03:52:39.781Z,11.30
2023-01-03T03:55:16.456Z,9.00
2023-01-03T03:57:52.952Z,10.83
2023-01-03T04:00:27.583Z,6.00
2023-01-03T04:02:59.215Z,11.07
2023-01-03T04:05:32.233Z,10.27
2023-01-03T04:08:01.993Z,8.90
2023-01-03T04:10:35.687Z,10.17
2023-01-03T04:13:06.491Z,10.50
2023-01-03T04:15:34.806Z,16.40
2023-01-03T04:18:03.128Z,8.70
2023-01-03T04:20:31.703Z,14.27
2023-01-03T04:23:02.397Z,9.83
2023-01-03T04:25:30.776Z,10.80
2023-01-03T04:27:59.040Z,8.90
2023-01-03T04:30:27.398Z,12.70
2023-01-03T04:32:56.451Z,10.50
2023-01-03T04:35:25.181Z,13.37
2023-01-03T04:37:53.422Z,10.90
2023-01-03T04:40:23.168Z,9.13
2023-01-03T04:43:09.023Z,15.97
2023-01-03T04:45:37.431Z,11.50
2023-01-03T04:48:07.728Z,13.50
2023-01-03T04:50:36.183Z,9.73
2023-01-03T04:53:04.459Z,9.83
2023-01-03T04:55:34.059Z,9.80
2023-01-03T04:58:02.724Z,11.80
2023-01-03T05:00:30.921Z,11.23
2023-01-03T05:02:59.207Z,10.93
2023-01-03T05:05:27.446Z,14.70
2023-01-03T05:07:55.595Z,11.03
2023-01-03T05:10:23.874Z,12.20
2023-01-03T05:13:00.599Z,10.93
2023-01-03T05:15:30.243Z,12.37
2023-01-03T05:17:59.027Z,11.37
2023-01-03T05:20:44.973Z,16.67
2023-01-03T05:23:32.413Z,11.10
2023-01-03T05:26:02.238Z,9.47
2023-01-03T05:28:31.970Z,13.30
2023-01-03T05:31:02.105Z,12.77
2023-01-03T05:33:30.624Z,13.87
2023-01-03T05:36:00.743Z,16.67
2023-01-03T05:38:29.180Z,12.97
2023-01-03T05:40:57.457Z,12.13
2023-01-03T05:43:25.821Z,18.63
2023-01-03T05:45:55.685Z,10.83
2023-01-03T05:48:24.304Z,12.77
2023-01-03T05:50:52.900Z,15.97
2023-01-03T05:53:21.172Z,13.10
2023-01-03T05:55:49.437Z,15.77
2023-01-03T05:58:17.691Z,16.63
2023-01-03T06:00:45.937Z,14.60
2023-01-03T06:03:16.388Z,14.23
2023-01-03T06:05:50.142Z,12.20
2023-01-03T06:08:19.085Z,16.07
2023-01-03T06:10:47.634Z,17.17
2023-01-03T06:13:16.097Z,14.77
2023-01-03T06:16:04.267Z,15.33
2023-01-03T06:18:34.653Z,17.23
2023-01-03T06:21:04.517Z,14.97
2023-01-03T06:23:32.886Z,17.67
2023-01-03T06:26:04.723Z,13.27
2023-01-03T06:28:32.996Z,14.10
2023-01-03T06:31:01.269Z,14.00
2023-01-03T06:33:29.478Z,15.00
2023-01-03T06:36:03.311Z,13.43
2023-01-03T06:38:31.686Z,13.23
2023-01-03T06:41:00.544Z,14.70
2023-01-03T06:43:29.256Z,14.93
2023-01-03T06:46:17.729Z,14.20
2023-01-03T06:49:04.228Z,15.07
2023-01-03T06:51:51.942Z,16.00
2023-01-03T06:54:24.407Z,18.90
2023-01-03T06:56:53.970Z,16.63
2023-01-03T06:59:24.587Z,12.27
2023-01-03T07:01:54.782Z,13.43
2023-01-03T07:04:25.523Z,14.53
2023-01-03T07:06:55.205Z,15.23
2023-01-03T07:09:24.209Z,12.43
2023-01-03T07:11:52.772Z,14.33
2023-01-03T07:14:20.111Z,15.00
2023-01-03T07:16:49.818Z,13.43
2023-01-03T07:19:20.787Z,17.10
2023-01-03T07:21:49.185Z,14.67
2023-01-03T07:24:19.575Z,14.93
2023-01-03T07:26:47.793Z,13.07
2023-01-03T07:29:16.206Z,16.73
2023-01-03T07:31:44.664Z,11.47
2023-01-03T07:34:13.072Z,14.03
2023-01-03T07:36:41.480Z,16.20
2023-01-03T07:39:09.756Z,11.90
2023-01-03T07:41:56.973Z,14.90
2023-01-03T07:44:25.288Z,12.70
2023-01-03T07:46:53.566Z,13.93
2023-01-03T07:49:21.963Z,15.37
2023-01-03T07:51:50.204Z,15.60
2023-01-03T07:54:18.791Z,16.60
2023-01-03T07:56:48.629Z,15.47
2023-01-03T07:59:17.201Z,11.53
2023-01-03T08:01:45.591Z,17.33
2023-01-03T08:04:13.914Z,13.80
2023-01-03T08:06:42.143Z,13.60
2023-01-03T08:09:27.870Z,17.87
2023-01-03T08:12:15.374Z,15.17
2023-01-03T08:14:44.217Z,14.60
2023-01-03T08:17:12.572Z,12.17
2023-01-03T08:19:45.531Z,14.87
2023-01-03T08:22:14.362Z,14.43
2023-01-03T08:24:42.598Z,13.13
2023-01-03T08:27:12.254Z,13.70
2023-01-03T08:29:40.515Z,19.70
2023-01-03T08:32:08.931Z,16.93
2023-01-03T08:34:41.769Z,15.83
2023-01-03T08:37:13.439Z,20.10
2023-01-03T08:39:48.391Z,15.67
2023-01-03T08:42:21.047Z,18.13
2023-01-03T08:44:52.150Z,24.17
2023-01-03T08:47:22.081Z,14.63
2023-01-03T08:49:50.395Z,17.93
2023-01-03T08:52:18.666Z,18.43
2023-01-03T08:54:47.068Z,20.10
2023-01-03T08:57:16.823Z,19.33
2023-01-03T08:59:45.066Z,23.33
2023-01-03T09:02:13.650Z,16.60
2023-01-03T09:04:42.160Z,25.87
2023-01-03T09:07:10.754Z,19.93
2023-01-03T09:09:38.968Z,18.50
2023-01-03T09:12:07.579Z,23.47
2023-01-03T09:14:37.200Z,20.23
2023-01-03T09:17:05.491Z,15.90
2023-01-03T09:19:33.782Z,22.23
2023-01-03T09:22:02.199Z,19.80
2023-01-03T09:24:30.503Z,19.13
2023-01-03T09:26:58.772Z,18.13
2023-01-03T09:29:27.088Z,16.30
2023-01-03T09:31:56.843Z,19.07
2023-01-03T09:34:25.141Z,22.77
2023-01-03T09:36:53.419Z,16.23
2023-01-03T09:39:21.819Z,17.50
2023-01-03T09:42:11.155Z,17.70
2023-01-03T09:44:41.478Z,20.30
2023-01-03T09:47:18.926Z,21.63
2023-01-03T09:50:26.120Z,16.83
2023-01-03T09:52:54.252Z,16.83
2023-01-03T09:55:51.417Z,16.53
2023-01-03T09:58:37.232Z,18.40
2023-01-03T10:01:45.001Z,20.67
2023-01-03T10:04:47.755Z,18.57
2023-01-03T10:07:34.825Z,21.87
2023-01-03T10:10:16.528Z,16.53
2023-01-03T10:13:02.853Z,16.50
2023-01-03T10:15:46.974Z,16.30
2023-01-03T10:18:38.120Z,20.77
2023-01-03T10:21:17.183Z,18.97
2023-01-03T10:23:48.871Z,18.47
2023-01-03T10:26:17.091Z,20.00
2023-01-03T10:28:47.330Z,17.23
2023-01-03T10:31:38.662Z,19.33
2023-01-03T10:34:08.659Z,19.70
2023-01-03T10:36:38.285Z,20.27
2023-01-03T10:39:09.936Z,20.17
2023-01-03T10:41:45.359Z,18.53
2023-01-03T10:44:26.489Z,19.80
2023-01-03T10:46:57.820Z,17.90
2023-01-03T10:49:30.882Z,15.00
2023-01-03T10:52:04.958Z,21.83
2023-01-03T10:54:47.514Z,16.83
2023-01-03T10:57:38.273Z,14.83
2023-01-03T11:00:28.266Z,15.30
2023-01-03T11:03:03.137Z,14.13
2023-01-03T11:05:31.280Z,16.17
2023-01-03T11:08:03.504Z,20.53
2023-01-03T11:10:38.127Z,18.63
2023-01-03T11:13:23.843Z,17.63
2023-01-03T11:15:55.766Z,13.87
2023-01-03T11:18:26.605Z,13.63
2023-01-03T11:21:05.481Z,12.40
2023-01-03T11:23:49.984Z,16.77
2023-01-03T11:26:33.341Z,16.80
2023-01-03T11:29:40.186Z,11.63
2023-01-03T11:32:25.531Z,14.83
2023-01-03T11:35:45.181Z,12.77
2023-01-03T11:38:32.703Z,14.70
2023-01-03T11:41:20.717Z,13.97
2023-01-03T11:44:22.110Z,9.20
2023-01-03T11:47:08.907Z,15.27
2023-01-03T11:49:58.129Z,12.47
2023-01-03T11:52:39.500Z,10.10
2023-01-03T11:55:45.048Z,12.03
2023-01-03T11:58:58.303Z,13.17
2023-01-03T12:01:49.044Z,12.77
2023-01-03T12:04:28.296Z,11.93
2023-01-03T12:10:16.315Z,13.67
2023-01-03T12:13:08.443Z,13.37
2023-01-03T12:15:46.813Z,14.00
2023-01-03T12:18:26.728Z,13.40
2023-01-03T12:21:01.399Z,9.80
2023-01-03T12:23:41.610Z,10.97
2023-01-03T12:26:14.553Z,9.47
2023-01-03T12:28:50.284Z,9.83
2023-01-03T12:31:33.157Z,10.30
2023-01-03T12:34:19.578Z,10.17
2023-01-03T12:37:04.052Z,8.57
2023-01-03T12:39:43.566Z,8.97
2023-01-03T12:42:24.403Z,10.23
2023-01-03T12:45:03.164Z,11.60
2023-01-03T12:47:45.898Z,12.33
2023-01-03T12:50:21.663Z,16.50
2023-01-03T12:52:59.186Z,11.97
2023-01-03T12:55:44.077Z,9.23
2023-01-03T12:58:39.791Z,7.93
2023-01-03T13:01:15.624Z,11.57
2023-01-03T13:03:54.498Z,14.53
2023-01-03T13:06:29.443Z,10.47
2023-01-03T13:09:04.232Z,9.97
2023-01-03T13:11:39.141Z,10.97
2023-01-03T13:14:21.346Z,14.77
2023-01-03T13:16:51.136Z,14.37
2023-01-03T13:19:52.866Z,14.53
2023-01-03T13:22:52.017Z,13.80
2023-01-03T13:25:40.177Z,9.90
2023-01-03T13:28:34.246Z,10.97
2023-01-03T13:32:03.718Z,10.43
2023-01-03T13:34:36.745Z,10.03
2023-01-03T13:37:18.912Z,10.57
2023-01-03T13:40:23.682Z,12.93
2023-01-03T13:43:12.533Z,13.23
2023-01-03T13:45:58.896Z,13.97
2023-01-03T13:48:35.705Z,11.70
2023-01-03T13:51:49.728Z,9.57
2023-01-03T13:54:37.990Z,15.33
2023-01-03T13:57:30.444Z,10.50
2023-01-03T14:00:01.105Z,12.93
2023-01-03T14:03:35.074Z,13.03
2023-01-03T14:07:01.109Z,12.47
2023-01-03T14:10:07.011Z,14.10
2023-01-03T14:13:06.697Z,11.73
2023-01-03T14:15:35.889Z,13.77
2023-01-03T14:18:20.744Z,15.90
2023-01-03T14:20:53.384Z,10.67
2023-01-03T14:23:59.275Z,10.27
2023-01-03T14:26:20.352Z,11.13
2023-01-03T14:28:51.619Z,11.07
2023-01-03T14:31:23.448Z,13.50
2023-01-03T14:33:57.008Z,13.50
2023-01-03T14:36:25.547Z,17.60
2023-01-03T14:38:58.596Z,13.73
2023-01-03T14:41:33.379Z,13.97
2023-01-03T14:44:06.917Z,18.50
2023-01-03T14:46:37.866Z,14.97
2023-01-03T14:49:18.465Z,16.57
2023-01-03T14:51:47.263Z,15.53
2023-01-03T14:54:19.479Z,14.67
2023-01-03T14:56:50.100Z,20.27
2023-01-03T14:59:22.606Z,12.93
2023-01-03T15:01:51.812Z,16.10
2023-01-03T15:04:21.012Z,14.30
2023-01-03T15:07:06.350Z,11.03
2023-01-03T15:09:39.508Z,12.97
2023-01-03T15:12:09.308Z,13.37
2023-01-03T15:14:39.918Z,12.07
2023-01-03T15:17:19.262Z,11.87
2023-01-03T15:19:53.459Z,12.30
2023-01-03T15:22:25.862Z,13.60
2023-01-03T15:25:05.729Z,19.53
2023-01-03T15:27:45.349Z,15.20
2023-01-03T15:30:24.879Z,10.67
2023-01-03T15:33:01.025Z,13.90
2023-01-03T15:35:41.150Z,13.53
2023-01-03T15:38:21.834Z,12.63
2023-01-03T15:40:51.654Z,14.50
2023-01-03T15:43:26.993Z,16.33
2023-01-03T15:46:04.389Z,19.10
2023-01-03T15:48:35.953Z,18.97
2023-01-03T15:51:06.882Z,16.77
2023-01-03T15:53:43.701Z,19.80
2023-01-03T15:56:19.896Z,23.20
2023-01-03T15:58:52.651Z,20.20
2023-01-03T16:01:22.613Z,22.50
2023-01-03T16:03:52.175Z,27.40
2023-01-03T16:06:20.713Z,24.37
2023-01-03T16:08:49.278Z,26.47
2023-01-03T16:11:26.727Z,22.67
2023-01-03T16:14:05.121Z,33.33
2023-01-03T16:16:38.138Z,28.47
2023-01-03T16:19:08.135Z,26.60
2023-01-03T16:21:36.360Z,29.10
2023-01-03T16:24:04.871Z,27.60
2023-01-03T16:26:33.087Z,24.00
2023-01-03T16:29:02.625Z,30.43
2023-01-03T16:31:34.172Z,26.47
2023-01-03T16:34:06.108Z,20.90
2023-01-03T16:36:38.047Z,27.03
2023-01-03T16:39:14.356Z,29.20
2023-01-03T16:41:42.671Z,27.60
2023-01-03T16:44:12.241Z,29.53
2023-01-03T16:46:40.626Z,28.20
2023-01-03T16:49:11.868Z,26.33
2023-01-03T16:51:57.159Z,26.50
2023-01-03T16:54:26.224Z,32.47
2023-01-03T16:56:54.499Z,30.57
2023-01-03T16:59:24.682Z,31.27
2023-01-03T17:01:53.140Z,27.30
2023-01-03T17:04:21.404Z,31.03
2023-01-03T17:06:49.808Z,26.03
2023-01-03T17:09:23.643Z,24.17
2023-01-03T17:11:53.437Z,28.10
2023-01-03T17:14:24.040Z,33.20
2023-01-03T17:16:52.593Z,26.70
2023-01-03T17:20:02.240Z,26.67
2023-01-03T17:22:16.130Z,29.70
2023-01-03T17:24:45.223Z,31.10
2023-01-03T17:27:22.812Z,28.97
2023-01-03T17:30:02.843Z,30.53
2023-01-03T17:32:31.448Z,29.20
2023-01-03T17:34:59.715Z,29.60
2023-01-03T17:37:27.990Z,34.17
2023-01-03T17:40:00.682Z,28.73
2023-01-03T17:42:30.047Z,30.77
2023-01-03T17:45:17.219Z,28.70
2023-01-03T17:48:02.963Z,29.87
2023-01-03T17:50:33.506Z,27.77
2023-01-03T17:53:03.164Z,29.63
2023-01-03T17:55:32.324Z,32.77
2023-01-03T17:58:03.325Z,31.53
2023-01-03T18:00:34.205Z,32.67
2023-01-03T18:03:02.784Z,34.17
2023-01-03T18:05:32.302Z,35.80
2023-01-03T18:08:02.588Z,32.20
2023-01-03T18:10:41.779Z,36.50
2023-01-03T18:13:23.363Z,31.43
2023-01-03T18:15:54.573Z,30.73
2023-01-03T18:18:27.035Z,34.57
2023-01-03T18:20:56.593Z,35.60
2023-01-03T18:23:31.626Z,34.87
2023-01-03T18:26:04.519Z,32.37
2023-01-03T18:28:33.200Z,36.57
2023-01-03T18:31:02.977Z,33.20
2023-01-03T18:33:31.290Z,37.27
2023-01-03T18:36:01.013Z,46.87
2023-01-03T18:38:32.818Z,38.23
2023-01-03T18:41:05.331Z,39.93
2023-01-03T18:43:34.658Z,37.03
2023-01-03T18:46:04.744Z,33.57
2023-01-03T18:48:33.232Z,30.43
2023-01-03T18:51:01.434Z,30.70
2023-01-03T18:53:32.994Z,35.00
2023-01-03T18:56:02.872Z,33.03
2023-01-03T18:58:36.251Z,30.93
2023-01-03T19:01:07.491Z,30.93
2023-01-03T19:03:36.776Z,29.13
2023-01-03T19:06:20.020Z,30.70
2023-01-03T19:08:49.523Z,27.57
2023-01-03T19:11:23.458Z,33.43
2023-01-03T19:13:54.867Z,33.73
2023-01-03T19:16:27.242Z,31.73
2023-01-03T19:18:55.923Z,26.60
2023-01-03T19:21:25.728Z,32.27
2023-01-03T19:24:01.819Z,32.20
2023-01-03T19:26:34.417Z,30.63
2023-01-03T19:29:06.765Z,29.43
2023-01-03T19:31:43.303Z,26.23
2023-01-03T19:34:23.641Z,30.33
2023-01-03T19:36:52.419Z,30.23
2023-01-03T19:39:25.875Z,26.80
2023-01-03T19:42:15.892Z,33.73
2023-01-03T19:44:44.718Z,26.23
2023-01-03T19:47:18.014Z,34.50
2023-01-03T19:49:48.922Z,29.57
2023-01-03T19:52:19.129Z,27.30
2023-01-03T19:54:47.468Z,26.03
2023-01-03T19:57:22.842Z,32.53
2023-01-03T19:59:56.663Z,31.67
2023-01-03T20:02:41.366Z,26.17
2023-01-03T20:05:23.214Z,30.67
2023-01-03T20:07:52.211Z,31.63
2023-01-03T20:10:23.778Z,28.90
2023-01-03T20:12:58.055Z,31.90
2023-01-03T20:15:30.676Z,28.67
2023-01-03T20:18:00.829Z,28.30
2023-01-03T20:20:34.029Z,27.97
2023-01-03T20:23:08.115Z,29.30
2023-01-03T20:25:37.898Z,29.93
2023-01-03T20:28:07.499Z,31.63
2023-01-03T20:30:38.694Z,27.13
2023-01-03T20:33:08.373Z,30.37
2023-01-03T20:36:09.751Z,34.33
2023-01-03T20:38:28.200Z,26.50
2023-01-03T20:40:57.660Z,26.30
2023-01-03T20:43:26.705Z,23.63
2023-01-03T20:45:58.679Z,32.83
2023-01-03T20:48:28.847Z,22.50
2023-01-03T20:50:57.496Z,25.70
2023-01-03T20:53:28.125Z,25.20
2023-01-03T20:55:56.489Z,26.00
2023-01-03T20:58:26.384Z,26.63
2023-01-03T21:01:04.223Z,22.90
2023-01-03T21:03:36.748Z,26.33
2023-01-03T21:06:17.686Z,24.00
2023-01-03T21:08:55.028Z,23.77
2023-01-03T21:11:24.868Z,22.87
2023-01-03T21:13:53.339Z,25.47
2023-01-03T21:16:33.209Z,24.67
2023-01-03T21:19:12.451Z,23.33
2023-01-03T21:21:41.825Z,23.27
2023-01-03T21:24:12.363Z,25.40
2023-01-03T21:26:41.138Z,26.03
2023-01-03T21:29:09.722Z,24.47
2023-01-03T21:31:42.024Z,23.30
2023-01-03T21:34:19.083Z,25.03
2023-01-03T21:36:48.185Z,25.67
2023-01-03T21:39:16.563Z,24.47
2023-01-03T21:42:02.664Z,22.50
2023-01-03T21:44:30.947Z,19.43
2023-01-03T21:46:59.205Z,20.73
2023-01-03T21:49:28.838Z,20.20
2023-01-03T21:51:57.153Z,28.17
2023-01-03T21:54:25.646Z,20.10
2023-01-03T21:56:53.820Z,18.40
2023-01-03T21:59:22.184Z,19.13
2023-01-03T22:02:08.407Z,18.90
2023-01-03T22:04:38.161Z,24.33
2023-01-03T22:07:07.077Z,18.67
2023-01-03T22:09:53.090Z,18.70
2023-01-03T22:12:21.738Z,22.87
2023-01-03T22:14:50.216Z,19.23
2023-01-03T22:17:18.524Z,18.40
2023-01-03T22:19:48.223Z,22.50
2023-01-03T22:22:16.503Z,20.50
2023-01-03T22:24:44.791Z,19.97
2023-01-03T22:27:13.066Z,16.43
2023-01-03T22:29:41.387Z,19.37
2023-01-03T22:32:10.508Z,16.33
2023-01-03T22:34:39.478Z,14.00
2023-01-03T22:37:09.267Z,17.67
2023-01-03T22:39:37.593Z,17.00
2023-01-03T22:42:06.368Z,14.67
2023-01-03T22:44:34.992Z,15.20
2023-01-03T22:47:03.418Z,16.17
2023-01-03T22:49:32.088Z,15.93
2023-01-03T22:52:00.464Z,13.13
2023-01-03T22:54:30.243Z,10.73
2023-01-03T22:57:01.043Z,11.23
2023-01-03T22:59:30.286Z,14.00
2023-01-03T23:01:59.393Z,13.27
2023-01-03T23:04:28.305Z,15.60
2023-01-03T23:06:57.220Z,9.90
2023-01-03T23:09:25.756Z,8.37
2023-01-03T23:12:12.871Z,8.97
2023-01-03T23:14:41.207Z,8.10
2023-01-03T23:17:27.301Z,10.47
2023-01-03T23:19:55.656Z,7.33
2023-01-03T23:22:23.956Z,6.47
2023-01-03T23:24:52.182Z,8.73
2023-01-03T23:27:21.857Z,5.70
2023-01-03T23:29:50.222Z,7.27
2023-01-03T23:32:18.623Z,7.53
2023-01-03T23:34:46.887Z,8.83
2023-01-03T23:37:15.286Z,8.50
2023-01-03T23:39:44.123Z,7.10
2023-01-03T23:42:12.574Z,6.27
2023-01-03T23:44:42.370Z,8.63
2023-01-03T23:47:12.505Z,9.80
2023-01-03T23:49:41.376Z,8.93
2023-01-03T23:52:09.964Z,5.83
2023-01-03T23:54:38.274Z,7.73
2023-01-03T23:57:06.597Z,5.00
2023-01-03T23:59:35.072Z,7.53
